PBD6509 UWUU-UUEE
Flight info
| Callsign | PBD6509 |
|---|---|
| Flight time | N/A |
| Altitude | 38000 |
| Route | TILMU3N TILMU N985 ORTIM L158 DIMGI DIMGI3F |
| Aircraft | B38M/M-SDE1FGHILORVWXY/HB1 |
Departure
| Time | N/A |
|---|---|
| Airport | Ufa International Airport (UWUU) |
Arrival
| Time | 2026-04-30 13:37 |
|---|---|
| Airport | Sheremetyevo International Airport (UUEE) |
| Time | Latitude | Longitude | Altitude | Speed | Heading |
|---|---|---|---|---|---|
| 2026-04-30 12:53 | 55.86457 | 41.69497 | 38179 ft | 454 kts | 266° |
| 2026-04-30 12:54 | 55.86178 | 41.60137 | 38175 ft | 454 kts | 267° |
| 2026-04-30 12:54 | 55.85842 | 41.48877 | 38176 ft | 455 kts | 267° |
| 2026-04-30 12:55 | 55.85493 | 41.37558 | 38182 ft | 455 kts | 266° |
| 2026-04-30 12:55 | 55.85140 | 41.26388 | 38182 ft | 455 kts | 266° |
| 2026-04-30 12:56 | 55.84773 | 41.15132 | 38182 ft | 455 kts | 266° |
| 2026-04-30 12:56 | 55.84406 | 41.04157 | 38179 ft | 455 kts | 266° |
| 2026-04-30 12:57 | 55.84019 | 40.92908 | 38192 ft | 456 kts | 266° |
| 2026-04-30 12:57 | 55.83822 | 40.87283 | 38033 ft | 455 kts | 266° |
| 2026-04-30 12:57 | 55.83623 | 40.81683 | 37529 ft | 450 kts | 266° |
| 2026-04-30 12:58 | 55.83426 | 40.76234 | 37018 ft | 446 kts | 266° |
| 2026-04-30 12:58 | 55.83227 | 40.70746 | 36475 ft | 443 kts | 266° |
| 2026-04-30 12:58 | 55.83027 | 40.65270 | 35936 ft | 441 kts | 266° |
| 2026-04-30 12:58 | 55.82813 | 40.59834 | 35338 ft | 441 kts | 266° |
| 2026-04-30 12:59 | 55.82596 | 40.54410 | 34803 ft | 439 kts | 266° |
| 2026-04-30 12:59 | 55.82378 | 40.49008 | 34322 ft | 436 kts | 266° |
| 2026-04-30 12:59 | 55.82161 | 40.43676 | 33733 ft | 434 kts | 267° |
| 2026-04-30 12:59 | 55.81943 | 40.38348 | 33167 ft | 431 kts | 266° |
| 2026-04-30 13:00 | 55.81723 | 40.33045 | 32660 ft | 427 kts | 266° |
| 2026-04-30 13:00 | 55.81503 | 40.27811 | 32154 ft | 423 kts | 266° |
| 2026-04-30 13:00 | 55.81282 | 40.22604 | 31656 ft | 420 kts | 266° |
| 2026-04-30 13:00 | 55.81060 | 40.17411 | 30996 ft | 421 kts | 266° |
| 2026-04-30 13:01 | 55.80835 | 40.12198 | 30299 ft | 423 kts | 266° |
| 2026-04-30 13:01 | 55.80607 | 40.06981 | 29468 ft | 425 kts | 266° |
| 2026-04-30 13:01 | 55.80393 | 40.02127 | 28780 ft | 424 kts | 266° |
| 2026-04-30 13:01 | 55.80161 | 39.96922 | 28112 ft | 421 kts | 266° |
| 2026-04-30 13:02 | 55.79928 | 39.91740 | 27414 ft | 420 kts | 266° |
| 2026-04-30 13:02 | 55.79697 | 39.86605 | 26708 ft | 419 kts | 266° |
| 2026-04-30 13:02 | 55.79452 | 39.81522 | 26140 ft | 415 kts | 264° |
| 2026-04-30 13:02 | 55.79118 | 39.76505 | 25889 ft | 403 kts | 264° |
| 2026-04-30 13:03 | 55.78795 | 39.71641 | 25685 ft | 391 kts | 264° |
| 2026-04-30 13:03 | 55.78484 | 39.66908 | 25480 ft | 381 kts | 264° |
| 2026-04-30 13:03 | 55.78180 | 39.62293 | 25250 ft | 372 kts | 264° |
| 2026-04-30 13:03 | 55.77878 | 39.57728 | 25026 ft | 372 kts | 264° |
| 2026-04-30 13:04 | 55.77576 | 39.53184 | 24806 ft | 370 kts | 263° |
| 2026-04-30 13:04 | 55.77274 | 39.48661 | 24584 ft | 368 kts | 263° |
| 2026-04-30 13:04 | 55.76971 | 39.44143 | 24363 ft | 367 kts | 263° |
| 2026-04-30 13:04 | 55.76666 | 39.39666 | 24160 ft | 365 kts | 263° |
| 2026-04-30 13:05 | 55.76354 | 39.35193 | 23952 ft | 363 kts | 263° |
| 2026-04-30 13:05 | 55.76044 | 39.30755 | 23766 ft | 362 kts | 263° |
| 2026-04-30 13:05 | 55.75733 | 39.26326 | 23565 ft | 360 kts | 263° |
| 2026-04-30 13:06 | 55.75109 | 39.17514 | 23167 ft | 359 kts | 263° |
| 2026-04-30 13:06 | 55.74796 | 39.13127 | 22984 ft | 358 kts | 263° |
| 2026-04-30 13:06 | 55.74483 | 39.08756 | 22798 ft | 357 kts | 263° |
| 2026-04-30 13:06 | 55.74169 | 39.04389 | 22610 ft | 356 kts | 263° |
| 2026-04-30 13:07 | 55.73853 | 39.00033 | 22423 ft | 355 kts | 263° |
| 2026-04-30 13:07 | 55.73536 | 38.95674 | 22251 ft | 355 kts | 263° |
| 2026-04-30 13:07 | 55.73448 | 38.91360 | 21997 ft | 352 kts | 276° |
| 2026-04-30 13:07 | 55.73681 | 38.87058 | 21757 ft | 352 kts | 275° |
| 2026-04-30 13:08 | 55.73890 | 38.82732 | 21525 ft | 351 kts | 275° |
| 2026-04-30 13:08 | 55.74101 | 38.78421 | 21287 ft | 350 kts | 276° |
| 2026-04-30 13:08 | 55.74312 | 38.74128 | 21045 ft | 349 kts | 276° |
| 2026-04-30 13:08 | 55.74521 | 38.69843 | 20806 ft | 348 kts | 276° |
| 2026-04-30 13:09 | 55.74730 | 38.65535 | 20567 ft | 347 kts | 276° |
| 2026-04-30 13:09 | 55.74933 | 38.61330 | 20339 ft | 346 kts | 276° |
| 2026-04-30 13:09 | 55.75452 | 38.57205 | 20214 ft | 342 kts | 294° |
| 2026-04-30 13:09 | 55.76664 | 38.53574 | 20222 ft | 343 kts | 304° |
| 2026-04-30 13:10 | 55.78011 | 38.50001 | 20221 ft | 343 kts | 304° |
| 2026-04-30 13:10 | 55.79342 | 38.46547 | 20223 ft | 343 kts | 305° |
| 2026-04-30 13:10 | 55.80689 | 38.43089 | 20221 ft | 335 kts | 305° |
| 2026-04-30 13:10 | 55.81992 | 38.39770 | 20223 ft | 321 kts | 305° |
| 2026-04-30 13:11 | 55.83322 | 38.36595 | 19953 ft | 318 kts | 308° |
| 2026-04-30 13:11 | 55.84678 | 38.33500 | 19676 ft | 314 kts | 308° |
| 2026-04-30 13:11 | 55.86014 | 38.30432 | 19385 ft | 314 kts | 308° |
| 2026-04-30 13:11 | 55.87345 | 38.27360 | 19095 ft | 313 kts | 308° |
| 2026-04-30 13:12 | 55.88671 | 38.24293 | 18787 ft | 312 kts | 308° |
| 2026-04-30 13:12 | 55.89994 | 38.21228 | 18478 ft | 311 kts | 308° |
| 2026-04-30 13:12 | 55.91306 | 38.18184 | 18136 ft | 308 kts | 308° |
| 2026-04-30 13:13 | 55.93894 | 38.12168 | 17525 ft | 305 kts | 308° |
| 2026-04-30 13:13 | 55.95184 | 38.09165 | 17219 ft | 304 kts | 308° |
| 2026-04-30 13:13 | 55.97745 | 38.03190 | 16624 ft | 302 kts | 308° |
| 2026-04-30 13:14 | 55.99018 | 38.00215 | 16327 ft | 300 kts | 308° |
| 2026-04-30 13:14 | 56.00181 | 37.97145 | 16053 ft | 299 kts | 295° |
| 2026-04-30 13:14 | 56.01148 | 37.89935 | 15637 ft | 299 kts | 283° |
| 2026-04-30 13:15 | 56.01419 | 37.87521 | 15503 ft | 299 kts | 282° |
| 2026-04-30 13:15 | 56.02279 | 37.80269 | 15130 ft | 297 kts | 292° |
| 2026-04-30 13:15 | 56.03401 | 37.77240 | 14859 ft | 292 kts | 318° |
| 2026-04-30 13:16 | 56.05093 | 37.75272 | 14659 ft | 290 kts | 333° |
| 2026-04-30 13:16 | 56.06898 | 37.73648 | 14457 ft | 291 kts | 334° |
| 2026-04-30 13:16 | 56.08718 | 37.72057 | 14223 ft | 290 kts | 334° |
| 2026-04-30 13:17 | 56.12334 | 37.69080 | 13744 ft | 287 kts | 343° |
| 2026-04-30 13:17 | 56.14344 | 37.68796 | 13485 ft | 285 kts | 4° |
| 2026-04-30 13:17 | 56.18308 | 37.69319 | 13106 ft | 285 kts | 4° |
| 2026-04-30 13:18 | 56.20286 | 37.69599 | 12901 ft | 284 kts | 4° |
| 2026-04-30 13:18 | 56.24141 | 37.70168 | 12483 ft | 271 kts | 4° |
| 2026-04-30 13:18 | 56.25996 | 37.70447 | 12290 ft | 265 kts | 4° |
| 2026-04-30 13:19 | 56.27762 | 37.70716 | 12091 ft | 259 kts | 4° |
| 2026-04-30 13:19 | 56.29525 | 37.70493 | 11833 ft | 256 kts | 340° |
| 2026-04-30 13:19 | 56.30961 | 37.68938 | 11592 ft | 255 kts | 316° |
| 2026-04-30 13:19 | 56.32112 | 37.66659 | 11396 ft | 255 kts | 312° |
| 2026-04-30 13:20 | 56.33276 | 37.64254 | 11128 ft | 255 kts | 311° |
| 2026-04-30 13:20 | 56.34410 | 37.61866 | 10762 ft | 256 kts | 311° |
| 2026-04-30 13:20 | 56.35561 | 37.59415 | 10446 ft | 255 kts | 311° |
| 2026-04-30 13:20 | 56.36701 | 37.56967 | 10296 ft | 248 kts | 310° |
| 2026-04-30 13:21 | 56.37758 | 37.54570 | 10200 ft | 240 kts | 305° |
| 2026-04-30 13:21 | 56.38661 | 37.52105 | 9963 ft | 238 kts | 304° |
| 2026-04-30 13:21 | 56.39573 | 37.49631 | 9692 ft | 235 kts | 304° |
| 2026-04-30 13:22 | 56.41174 | 37.44515 | 9300 ft | 237 kts | 281° |
| 2026-04-30 13:22 | 56.41038 | 37.41529 | 9132 ft | 240 kts | 251° |
| 2026-04-30 13:22 | 56.38664 | 37.37480 | 8867 ft | 248 kts | 202° |
| 2026-04-30 13:23 | 56.37026 | 37.36427 | 8713 ft | 248 kts | 201° |
| 2026-04-30 13:23 | 56.33761 | 37.34386 | 8390 ft | 248 kts | 201° |
| 2026-04-30 13:24 | 56.30502 | 37.32392 | 8072 ft | 247 kts | 201° |
| 2026-04-30 13:24 | 56.27284 | 37.30442 | 7757 ft | 245 kts | 201° |
| 2026-04-30 13:25 | 56.23947 | 37.29944 | 7404 ft | 247 kts | 166° |
| 2026-04-30 13:25 | 56.20627 | 37.31523 | 7116 ft | 246 kts | 166° |
| 2026-04-30 13:26 | 56.17001 | 37.36841 | 6381 ft | 246 kts | 97° |
| 2026-04-30 13:26 | 56.17332 | 37.41814 | 6064 ft | 239 kts | 75° |
| 2026-04-30 13:27 | 56.18102 | 37.47432 | 5619 ft | 240 kts | 73° |
| 2026-04-30 13:28 | 56.19316 | 37.55940 | 4956 ft | 230 kts | 79° |
| 2026-04-30 13:28 | 56.18293 | 37.61026 | 4644 ft | 220 kts | 131° |
| 2026-04-30 13:28 | 56.17287 | 37.63015 | 4552 ft | 210 kts | 132° |
| 2026-04-30 13:29 | 56.15446 | 37.66525 | 4303 ft | 193 kts | 134° |
| 2026-04-30 13:29 | 56.13614 | 37.69944 | 4084 ft | 189 kts | 134° |
| 2026-04-30 13:30 | 56.10861 | 37.75011 | 3756 ft | 186 kts | 134° |
| 2026-04-30 13:31 | 56.08682 | 37.76833 | 3464 ft | 175 kts | 188° |
| 2026-04-30 13:31 | 56.05209 | 37.75303 | 3212 ft | 172 kts | 199° |
| 2026-04-30 13:32 | 56.02934 | 37.74037 | 2987 ft | 170 kts | 210° |
| 2026-04-30 13:32 | 56.01643 | 37.70805 | 2796 ft | 163 kts | 250° |
| 2026-04-30 13:33 | 56.00938 | 37.66977 | 2605 ft | 161 kts | 257° |
| 2026-04-30 13:33 | 56.00416 | 37.63487 | 2535 ft | 137 kts | 258° |
| 2026-04-30 13:34 | 56.00175 | 37.61853 | 2536 ft | 140 kts | 259° |
| 2026-04-30 13:34 | 55.99418 | 37.56785 | 1967 ft | 139 kts | 259° |
| 2026-04-30 13:35 | 55.99170 | 37.55113 | 1888 ft | 140 kts | 258° |
| 2026-04-30 13:35 | 55.98714 | 37.52072 | 1577 ft | 135 kts | 259° |
| 2026-04-30 13:36 | 55.98242 | 37.48885 | 1195 ft | 134 kts | 257° |
| 2026-04-30 13:36 | 55.98002 | 37.47267 | 1008 ft | 134 kts | 257° |
| 2026-04-30 13:36 | 55.97526 | 37.44049 | 652 ft | 133 kts | 256° |
| 2026-04-30 13:37 | 55.97341 | 37.42672 | 645 ft | 108 kts | 257° |
| 2026-04-30 13:37 | 55.97118 | 37.41336 | 642 ft | 27 kts | 249° |
| 2026-04-30 13:38 | 55.96972 | 37.40949 | 640 ft | 16 kts | 226° |
| 2026-04-30 13:38 | 55.96940 | 37.40893 | 649 ft | 0 kts | 225° |
| 2026-04-30 13:39 | 55.96899 | 37.40819 | 641 ft | 10 kts | 225° |
| 2026-04-30 13:40 | 55.96837 | 37.40710 | 641 ft | 16 kts | 224° |
| 2026-04-30 13:40 | 55.96783 | 37.40512 | 641 ft | 19 kts | 255° |
| 2026-04-30 13:40 | 55.96752 | 37.40300 | 641 ft | 17 kts | 255° |
| 2026-04-30 13:40 | 55.96701 | 37.40132 | 641 ft | 16 kts | 195° |
| 2026-04-30 13:41 | 55.96587 | 37.40176 | 641 ft | 19 kts | 165° |
| 2026-04-30 13:41 | 55.96477 | 37.40233 | 641 ft | 10 kts | 149° |
| 2026-04-30 13:41 | 55.96468 | 37.40301 | 641 ft | 6 kts | 75° |
| 2026-04-30 13:41 | 55.96482 | 37.40393 | 643 ft | 2 kts | 76° |